createdAt,value
2017-01-26T00:00:11.419Z,87.47
2017-01-26T00:01:16.619Z,87.18
2017-01-26T00:02:19.914Z,87.37
2017-01-26T00:03:25.078Z,87.37
2017-01-26T00:04:30.240Z,87.09
2017-01-26T00:05:36.411Z,87.66
2017-01-26T00:06:41.574Z,87.37
2017-01-26T00:07:47.744Z,87.56
2017-01-26T00:08:53.907Z,87.37
2017-01-26T00:10:00.067Z,87.18
2017-01-26T00:11:06.250Z,87.37
2017-01-26T00:12:11.480Z,87.18
2017-01-26T00:13:17.608Z,87.28
2017-01-26T00:14:22.805Z,87.37
2017-01-26T00:15:27.996Z,87.37
2017-01-26T00:16:34.163Z,87.37
2017-01-26T00:17:40.322Z,87.37
2017-01-26T00:18:45.523Z,87.37
2017-01-26T00:19:51.680Z,87.56
2017-01-26T00:20:57.843Z,87.28
2017-01-26T00:22:04.033Z,87.28
2017-01-26T00:23:09.252Z,87.85
2017-01-26T00:24:14.439Z,87.56
2017-01-26T00:25:20.621Z,87.75
2017-01-26T00:26:26.810Z,87.66
2017-01-26T00:27:32.946Z,87.56
2017-01-26T00:28:39.091Z,87.37
2017-01-26T00:29:43.325Z,87.37
2017-01-26T00:30:48.531Z,87.47
2017-01-26T00:31:54.670Z,87.56
2017-01-26T00:32:59.976Z,87.66
2017-01-26T00:34:04.101Z,87.56
2017-01-26T00:35:10.276Z,87.37
2017-01-26T00:36:16.437Z,87.85
2017-01-26T00:37:21.699Z,87.75
2017-01-26T00:38:27.858Z,88.23
2017-01-26T00:39:34.151Z,88.23
2017-01-26T00:40:40.317Z,88.42
2017-01-26T00:41:46.514Z,87.94
2017-01-26T00:42:52.656Z,88.04
2017-01-26T00:43:57.849Z,88.51
2017-01-26T00:45:03.983Z,88.51
2017-01-26T00:46:08.214Z,88.51
2017-01-26T00:47:13.412Z,88.51
2017-01-26T00:48:19.576Z,88.13
2017-01-26T00:49:23.845Z,88.23
2017-01-26T00:50:28.144Z,88.23
2017-01-26T00:51:32.473Z,88.32
2017-01-26T00:52:36.688Z,88.23
2017-01-26T00:53:42.844Z,88.7
2017-01-26T00:54:48.049Z,88.7
2017-01-26T00:55:54.210Z,88.7
2017-01-26T00:57:00.462Z,89.17
2017-01-26T00:58:05.691Z,88.6
2017-01-26T00:59:10.868Z,88.89
2017-01-26T01:00:17.033Z,88.89
2017-01-26T01:01:23.196Z,89.17
2017-01-26T01:02:28.389Z,89.36
2017-01-26T01:03:34.560Z,89.4
2017-01-26T01:04:40.826Z,89.5
2017-01-26T01:05:46.004Z,89.5
2017-01-26T01:06:51.226Z,89.31
2017-01-26T01:07:55.395Z,89.22
2017-01-26T01:09:01.553Z,89.59
2017-01-26T01:10:07.713Z,89.4
2017-01-26T01:11:13.889Z,89.03
2017-01-26T01:12:20.052Z,89.97
2017-01-26T01:13:25.261Z,90.07
2017-01-26T01:14:31.416Z,89.78
2017-01-26T01:15:35.609Z,90.16
2017-01-26T01:16:41.767Z,90.16
2017-01-26T01:17:47.930Z,89.88
2017-01-26T01:18:53.218Z,90.35
2017-01-26T01:19:57.449Z,90.35
2017-01-26T01:21:03.606Z,90.26
2017-01-26T01:22:08.804Z,90.35
2017-01-26T01:23:13.085Z,90.54
2017-01-26T01:24:19.251Z,90.54
2017-01-26T01:25:25.420Z,90.54
2017-01-26T01:26:28.660Z,90.64
2017-01-26T01:27:33.847Z,90.45
2017-01-26T01:28:40.041Z,90.64
2017-01-26T01:29:44.231Z,90.54
2017-01-26T01:30:49.422Z,90.64
2017-01-26T01:31:54.613Z,90.54
2017-01-26T01:32:59.805Z,90.54
2017-01-26T01:34:03.032Z,91.2
2017-01-26T01:35:09.194Z,91.01
2017-01-26T01:36:15.365Z,90.82
2017-01-26T01:37:19.595Z,90.82
2017-01-26T01:38:24.817Z,90.82
2017-01-26T01:39:30.947Z,90.82
2017-01-26T01:40:36.113Z,91.11
2017-01-26T01:41:42.274Z,91.2
2017-01-26T01:42:47.463Z,91.2
2017-01-26T01:43:53.723Z,91.39
2017-01-26T01:44:59.888Z,91.11
2017-01-26T01:46:06.049Z,90.92
2017-01-26T01:47:09.313Z,91.01
2017-01-26T01:48:15.522Z,91.01
2017-01-26T01:49:19.723Z,90.82
2017-01-26T01:50:24.923Z,91.2
2017-01-26T01:51:30.127Z,91.49
2017-01-26T01:52:36.286Z,91.01
2017-01-26T01:53:41.504Z,91.01
2017-01-26T01:54:46.699Z,91.3
2017-01-26T01:55:52.912Z,91.49
2017-01-26T01:56:58.200Z,91.67
2017-01-26T01:58:03.403Z,91.3
2017-01-26T01:59:07.624Z,91.86
2017-01-26T02:00:12.815Z,91.86
2017-01-26T02:01:18.973Z,91.86
2017-01-26T02:02:25.145Z,91.86
2017-01-26T02:03:31.336Z,91.49
2017-01-26T02:04:36.496Z,92.05
2017-01-26T02:05:41.689Z,91.77
2017-01-26T02:06:47.855Z,92.24
2017-01-26T02:07:53.055Z,92.14
2017-01-26T02:08:59.250Z,92.05
2017-01-26T02:10:04.495Z,91.77
2017-01-26T02:11:10.659Z,92.14
2017-01-26T02:12:15.817Z,91.96
2017-01-26T02:13:20.020Z,92.24
2017-01-26T02:14:26.172Z,91.91
2017-01-26T02:15:31.350Z,91.91
2017-01-26T02:16:37.604Z,91.91
2017-01-26T02:17:41.806Z,92.1
2017-01-26T02:18:47.974Z,92.19
2017-01-26T02:19:53.167Z,91.91
2017-01-26T02:20:59.335Z,92.19
2017-01-26T02:22:04.534Z,92.47
2017-01-26T02:23:10.697Z,92.38
2017-01-26T02:24:14.892Z,92.29
2017-01-26T02:25:20.117Z,92.19
2017-01-26T02:26:26.241Z,92.19
2017-01-26T02:27:31.432Z,92.57
2017-01-26T02:28:36.620Z,92.57
2017-01-26T02:29:41.810Z,92.19
2017-01-26T02:30:47.965Z,92.19
2017-01-26T02:31:54.133Z,92.19
2017-01-26T02:32:58.325Z,92.57
2017-01-26T02:34:03.565Z,92.38
2017-01-26T02:35:07.741Z,92.47
2017-01-26T02:36:12.874Z,92.38
2017-01-26T02:37:19.031Z,92.76
2017-01-26T02:38:25.211Z,92.66
2017-01-26T02:39:31.375Z,92.57
2017-01-26T02:40:36.546Z,92.57
2017-01-26T02:41:42.698Z,93.13
2017-01-26T02:42:47.979Z,93.13
2017-01-26T02:43:52.179Z,93.04
2017-01-26T02:44:58.356Z,92.85
2017-01-26T02:46:04.520Z,92.66
2017-01-26T02:47:10.681Z,92.76
2017-01-26T02:48:15.867Z,92.76
2017-01-26T02:49:20.108Z,92.76
2017-01-26T02:50:26.296Z,93.04
2017-01-26T02:51:31.444Z,93.04
2017-01-26T02:52:36.650Z,93.23
2017-01-26T02:53:42.820Z,93.42
2017-01-26T02:54:48.071Z,93.42
2017-01-26T02:55:54.183Z,93.32
2017-01-26T02:56:59.401Z,93.32
2017-01-26T02:58:05.560Z,93.23
2017-01-26T02:59:10.747Z,93.51
2017-01-26T03:00:15.941Z,93.32
2017-01-26T03:01:21.099Z,93.32
2017-01-26T03:02:27.332Z,93.32
2017-01-26T03:03:31.572Z,93.8
2017-01-26T03:04:37.841Z,93.8
2017-01-26T03:05:44.172Z,93.32
2017-01-26T03:06:50.323Z,93.32
2017-01-26T03:07:55.538Z,93.51
2017-01-26T03:09:01.668Z,93.23
2017-01-26T03:10:06.855Z,93.51
2017-01-26T03:11:13.025Z,93.89
2017-01-26T03:12:18.267Z,93.8
2017-01-26T03:13:23.500Z,93.99
2017-01-26T03:14:29.617Z,93.8
2017-01-26T03:15:35.781Z,93.99
2017-01-26T03:16:40.951Z,93.89
2017-01-26T03:17:46.122Z,93.8
2017-01-26T03:18:51.314Z,93.99
2017-01-26T03:19:57.477Z,93.99
2017-01-26T03:21:03.643Z,93.99
2017-01-26T03:22:08.838Z,94.18
2017-01-26T03:23:15.007Z,93.99
2017-01-26T03:24:20.200Z,93.8
2017-01-26T03:25:25.371Z,93.99
2017-01-26T03:26:29.572Z,93.7
2017-01-26T03:27:35.736Z,93.89
2017-01-26T03:28:41.890Z,94.46
2017-01-26T03:29:44.198Z,94.55
2017-01-26T03:30:48.422Z,94.36
2017-01-26T03:31:52.644Z,95.03
2017-01-26T03:32:57.839Z,94.93
2017-01-26T03:34:03.037Z,95.12
2017-01-26T03:35:09.298Z,94.36
2017-01-26T03:36:14.489Z,95.12
2017-01-26T03:37:20.650Z,95.12
2017-01-26T03:38:25.840Z,94.93
2017-01-26T03:39:31.072Z,95.21
2017-01-26T03:40:36.341Z,95.12
2017-01-26T03:41:42.508Z,95.12
2017-01-26T03:42:48.691Z,94.93
2017-01-26T03:43:54.839Z,95.12
2017-01-26T03:45:00.997Z,94.27
2017-01-26T03:46:05.198Z,94.27
2017-01-26T03:47:10.430Z,94.18
2017-01-26T03:48:15.557Z,94.55
2017-01-26T03:49:19.786Z,94.18
2017-01-26T03:50:24.019Z,94.55
2017-01-26T03:51:29.207Z,93.8
2017-01-26T03:52:35.360Z,93.8
2017-01-26T03:53:40.527Z,93.8
2017-01-26T03:54:45.725Z,93.7
2017-01-26T03:55:49.985Z,93.99
2017-01-26T03:56:56.141Z,93.99
2017-01-26T03:58:01.333Z,93.89
2017-01-26T03:59:06.522Z,93.99
2017-01-26T04:00:10.777Z,93.99
2017-01-26T04:01:16.925Z,94.08
2017-01-26T04:02:23.105Z,93.99
2017-01-26T04:03:28.302Z,94.08
2017-01-26T04:04:34.461Z,94.08
2017-01-26T04:05:39.654Z,94.18
2017-01-26T04:06:44.855Z,93.89
2017-01-26T04:07:51.016Z,94.18
2017-01-26T04:08:56.175Z,94.08
2017-01-26T04:10:02.330Z,93.99
2017-01-26T04:11:07.529Z,94.18
2017-01-26T04:12:13.705Z,93.8
2017-01-26T04:13:19.857Z,93.8
2017-01-26T04:14:25.042Z,93.8
2017-01-26T04:15:31.197Z,93.89
2017-01-26T04:16:36.385Z,93.7
2017-01-26T04:17:42.547Z,93.99
2017-01-26T04:18:47.743Z,93.89
2017-01-26T04:19:52.010Z,93.51
2017-01-26T04:20:56.198Z,93.7
2017-01-26T04:22:00.420Z,93.8
2017-01-26T04:23:06.581Z,93.61
2017-01-26T04:24:10.778Z,94.18
2017-01-26T04:25:16.956Z,93.51
2017-01-26T04:26:22.202Z,93.32
2017-01-26T04:27:28.357Z,93.51
2017-01-26T04:28:33.554Z,93.32
2017-01-26T04:29:37.722Z,93.04
2017-01-26T04:30:43.891Z,92.99
2017-01-26T04:31:49.089Z,92.99
2017-01-26T04:32:53.464Z,92.76
2017-01-26T04:33:58.643Z,92.85
2017-01-26T04:35:04.812Z,92.76
2017-01-26T04:36:10.007Z,92.85
2017-01-26T04:37:16.172Z,92.76
2017-01-26T04:38:21.368Z,92.66
2017-01-26T04:39:27.607Z,93.13
2017-01-26T04:40:31.751Z,93.13
2017-01-26T04:41:36.948Z,93.04
2017-01-26T04:42:42.143Z,92.95
2017-01-26T04:43:48.304Z,92.57
2017-01-26T04:44:54.468Z,92.76
2017-01-26T04:45:58.687Z,92.57
2017-01-26T04:47:04.870Z,92.76
2017-01-26T04:48:11.050Z,92.19
2017-01-26T04:49:17.213Z,92.19
2017-01-26T04:50:23.370Z,92.47
2017-01-26T04:51:29.537Z,92.19
2017-01-26T04:52:34.712Z,92.29
2017-01-26T04:53:39.870Z,92.38
2017-01-26T04:54:45.038Z,92.29
2017-01-26T04:55:51.272Z,92.66
2017-01-26T04:56:57.439Z,92.29
2017-01-26T04:58:02.634Z,92.1
2017-01-26T04:59:08.805Z,92.57
2017-01-26T05:00:14.008Z,92.38
2017-01-26T05:01:18.200Z,92.66
2017-01-26T05:02:23.391Z,92.19
2017-01-26T05:03:29.628Z,92.19
2017-01-26T05:04:35.801Z,92.19
2017-01-26T05:05:40.994Z,92.38
2017-01-26T05:06:45.194Z,92.19
2017-01-26T05:07:50.356Z,92.57
2017-01-26T05:08:53.647Z,92.19
2017-01-26T05:09:59.871Z,92.38
2017-01-26T05:11:06.100Z,92.38
2017-01-26T05:12:11.240Z,92.76
2017-01-26T05:13:16.430Z,92.47
2017-01-26T05:14:22.601Z,92.38
2017-01-26T05:15:26.796Z,92.19
2017-01-26T05:16:32.962Z,92.38
2017-01-26T05:17:39.126Z,92.1
2017-01-26T05:18:45.301Z,92.76
2017-01-26T05:19:50.523Z,92.57
2017-01-26T05:20:56.659Z,93.13
2017-01-26T05:22:02.811Z,92.95
2017-01-26T05:23:08.968Z,92.57
2017-01-26T05:24:14.162Z,92.66
2017-01-26T05:25:20.359Z,93.04
2017-01-26T05:26:26.514Z,92.66
2017-01-26T05:27:32.683Z,92.57
2017-01-26T05:28:36.913Z,92.66
2017-01-26T05:29:43.076Z,92.95
2017-01-26T05:30:49.241Z,92.95
2017-01-26T05:31:55.398Z,93.32
2017-01-26T05:33:01.560Z,93.42
2017-01-26T05:34:06.757Z,93.23
2017-01-26T05:35:12.072Z,93.61
2017-01-26T05:36:16.305Z,93.23
2017-01-26T05:37:22.432Z,93.51
2017-01-26T05:38:27.626Z,93.51
2017-01-26T05:39:32.829Z,93.13
2017-01-26T05:40:38.980Z,93.7
2017-01-26T05:41:45.140Z,92.95
2017-01-26T05:42:50.330Z,93.32
2017-01-26T05:43:56.531Z,92.66
2017-01-26T05:45:01.726Z,93.04
2017-01-26T05:46:06.015Z,92.95
2017-01-26T05:47:12.172Z,92.95
2017-01-26T05:48:14.466Z,93.04
2017-01-26T05:49:18.686Z,92.85
2017-01-26T05:50:24.851Z,92.76
2017-01-26T05:51:31.026Z,93.13
2017-01-26T05:52:36.212Z,92.95
2017-01-26T05:53:40.453Z,92.76
2017-01-26T05:54:45.752Z,92.85
2017-01-26T05:55:50.937Z,93.23
2017-01-26T05:56:55.163Z,92.85
2017-01-26T05:58:00.356Z,93.23
2017-01-26T05:59:06.556Z,93.04
2017-01-26T06:00:12.685Z,92.57
2017-01-26T06:01:18.004Z,92.38
2017-01-26T06:02:24.165Z,92.76
2017-01-26T06:03:29.350Z,92.76
2017-01-26T06:04:35.505Z,92.76
2017-01-26T06:05:40.699Z,92.76
2017-01-26T06:06:45.891Z,92.66
2017-01-26T06:07:52.064Z,92.19
2017-01-26T06:08:58.215Z,92.29
2017-01-26T06:10:04.377Z,92.47
2017-01-26T06:11:09.546Z,92.19
2017-01-26T06:12:14.760Z,92.19
2017-01-26T06:13:19.918Z,92.1
2017-01-26T06:14:26.179Z,92.19
2017-01-26T06:15:31.371Z,92.47
2017-01-26T06:16:35.609Z,92.38
2017-01-26T06:17:39.872Z,92.38
2017-01-26T06:18:45.067Z,91.91
2017-01-26T06:19:50.258Z,91.82
2017-01-26T06:20:54.561Z,91.72
2017-01-26T06:21:59.890Z,91.82
2017-01-26T06:23:06.052Z,92
2017-01-26T06:24:09.278Z,91.06
2017-01-26T06:25:15.446Z,91.53
2017-01-26T06:26:21.605Z,91.63
2017-01-26T06:27:27.760Z,91.63
2017-01-26T06:28:32.957Z,91.35
2017-01-26T06:29:38.115Z,91.44
2017-01-26T06:30:44.278Z,91.16
2017-01-26T06:31:50.476Z,91.25
2017-01-26T06:32:54.650Z,91.25
2017-01-26T06:34:00.811Z,91.06
2017-01-26T06:35:05.033Z,91.44
2017-01-26T06:36:10.220Z,90.97
2017-01-26T06:37:15.506Z,91.16
2017-01-26T06:38:18.741Z,90.97
2017-01-26T06:39:23.935Z,91.25
2017-01-26T06:40:29.143Z,91.25
2017-01-26T06:41:35.305Z,91.16
2017-01-26T06:42:41.459Z,91.16
2017-01-26T06:43:46.649Z,91.16
2017-01-26T06:44:51.840Z,90.87
2017-01-26T06:45:57.030Z,91.35
2017-01-26T06:47:03.193Z,90.68
2017-01-26T06:48:08.397Z,90.64
2017-01-26T06:49:14.557Z,90.87
2017-01-26T06:50:20.724Z,90.97
2017-01-26T06:51:24.948Z,90.97
2017-01-26T06:52:31.113Z,91.35
2017-01-26T06:53:35.308Z,91.16
2017-01-26T06:54:41.486Z,90.68
2017-01-26T06:55:47.633Z,91.35
2017-01-26T06:56:52.835Z,91.25
2017-01-26T06:57:59.000Z,90.21
2017-01-26T06:59:04.246Z,90.21
2017-01-26T07:00:08.423Z,91.25
2017-01-26T07:01:13.622Z,90.87
2017-01-26T07:02:18.819Z,90.97
2017-01-26T07:03:25.052Z,90.78
2017-01-26T07:04:29.392Z,91.06
2017-01-26T07:05:35.550Z,91.06
2017-01-26T07:07:45.956Z,90.78
2017-01-26T07:08:51.146Z,90.87
2017-01-26T07:09:57.315Z,90.97
2017-01-26T07:11:02.575Z,91.44
2017-01-26T07:12:08.739Z,91.25
2017-01-26T07:13:11.986Z,91.16
2017-01-26T07:14:18.135Z,90.78
2017-01-26T07:15:24.316Z,90.97
2017-01-26T07:16:30.477Z,90.97
2017-01-26T07:17:33.731Z,90.78
2017-01-26T07:18:37.975Z,91.16
2017-01-26T07:19:44.100Z,90.78
2017-01-26T07:20:49.293Z,90.78
2017-01-26T07:21:55.446Z,91.25
2017-01-26T07:23:00.648Z,90.97
2017-01-26T07:24:05.855Z,90.97
2017-01-26T07:25:12.146Z,91.16
2017-01-26T07:26:17.292Z,91.16
2017-01-26T07:27:21.515Z,91.16
2017-01-26T07:28:27.683Z,91.53
2017-01-26T07:29:33.933Z,91.82
2017-01-26T07:30:38.101Z,91.63
2017-01-26T07:31:44.379Z,91.53
2017-01-26T07:32:50.539Z,91.44
2017-01-26T07:33:56.708Z,91.91
2017-01-26T07:35:02.927Z,91.82
2017-01-26T07:36:08.127Z,91.91
2017-01-26T07:37:13.326Z,91.91
2017-01-26T07:38:19.497Z,91.82
2017-01-26T07:39:25.644Z,91.63
2017-01-26T07:40:29.857Z,92.19
2017-01-26T07:41:33.119Z,92
2017-01-26T07:42:38.298Z,91.82
2017-01-26T07:43:43.467Z,91.91
2017-01-26T07:44:49.672Z,91.58
2017-01-26T07:45:54.830Z,91.39
2017-01-26T07:46:59.070Z,90.92
2017-01-26T07:48:04.272Z,91.39
2017-01-26T07:49:10.443Z,91.49
2017-01-26T07:50:15.634Z,91.01
2017-01-26T07:51:19.888Z,91.3
2017-01-26T07:52:25.055Z,91.49
2017-01-26T07:53:29.257Z,91.3
2017-01-26T07:54:34.418Z,91.3
2017-01-26T07:55:39.725Z,91.11
2017-01-26T07:56:44.928Z,91.01
2017-01-26T07:58:55.317Z,91.3
2017-01-26T08:00:01.459Z,91.25
2017-01-26T08:01:07.624Z,90.02
2017-01-26T08:02:13.797Z,89.4
2017-01-26T08:03:20.017Z,87.23
2017-01-26T08:04:25.226Z,86.42
2017-01-26T08:05:31.390Z,85.76
2017-01-26T08:06:36.553Z,83.59
2017-01-26T08:07:41.760Z,81.93
2017-01-26T08:08:47.160Z,80.04
2017-01-26T08:09:52.316Z,78.56
2017-01-26T08:10:57.523Z,74.87
2017-01-26T08:12:03.680Z,72.31
2017-01-26T08:13:08.873Z,72.16
2017-01-26T08:14:14.075Z,70.93
2017-01-26T08:15:19.302Z,69.41
2017-01-26T08:16:25.450Z,67.65
2017-01-26T08:17:29.693Z,66.32
2017-01-26T08:18:34.883Z,65.56
2017-01-26T08:19:40.078Z,64.61
2017-01-26T08:20:46.252Z,64.27
2017-01-26T08:21:52.424Z,63.23
2017-01-26T08:22:58.591Z,62.56
2017-01-26T08:24:04.759Z,61.43
2017-01-26T08:25:09.964Z,60.5
2017-01-26T08:26:14.168Z,60.03
2017-01-26T08:27:19.365Z,59.46
2017-01-26T08:28:25.527Z,58.61
2017-01-26T08:29:30.825Z,57.95
2017-01-26T08:30:36.985Z,56.81
2017-01-26T08:31:41.212Z,56.9
2017-01-26T08:32:47.380Z,57.28
2017-01-26T08:33:51.592Z,56.52
2017-01-26T08:34:56.797Z,56.55
2017-01-26T08:36:02.006Z,56.27
2017-01-26T08:37:06.318Z,56.08
2017-01-26T08:38:11.546Z,54.94
2017-01-26T08:39:17.682Z,54.75
2017-01-26T08:40:21.932Z,54.85
2017-01-26T08:41:27.134Z,55.04
2017-01-26T08:42:33.314Z,55.25
2017-01-26T08:43:38.482Z,54.02
2017-01-26T08:44:44.651Z,53.35
2017-01-26T08:45:48.933Z,52.97
2017-01-26T08:46:54.109Z,52.78
2017-01-26T08:47:59.319Z,52.12
2017-01-26T08:49:05.491Z,52.31
2017-01-26T08:50:11.682Z,52.12
2017-01-26T08:51:16.890Z,51.64
2017-01-26T08:52:23.068Z,51.17
2017-01-26T08:53:29.239Z,51.17
2017-01-26T08:54:33.536Z,49.65
2017-01-26T08:55:38.749Z,49.37
2017-01-26T08:56:44.923Z,50.31
2017-01-26T08:57:50.111Z,49.74
2017-01-26T08:58:56.277Z,51.26
2017-01-26T09:00:01.503Z,50.41
2017-01-26T09:01:05.752Z,49.63
2017-01-26T09:02:11.998Z,51.26
2017-01-26T09:03:18.179Z,50.7
2017-01-26T09:04:24.339Z,49.65
2017-01-26T09:05:29.547Z,49.58
2017-01-26T09:06:34.752Z,49.29
2017-01-26T09:07:37.986Z,48.06
2017-01-26T09:08:44.164Z,46.73
2017-01-26T09:09:50.381Z,46.73
2017-01-26T09:10:56.591Z,46.64
2017-01-26T09:12:02.732Z,47.39
2017-01-26T09:13:06.942Z,47.42
2017-01-26T09:14:11.182Z,46.94
2017-01-26T09:15:16.385Z,45.59
2017-01-26T09:16:21.597Z,45.02
2017-01-26T09:17:27.784Z,46.73
2017-01-26T09:18:33.954Z,46.54
2017-01-26T09:19:38.156Z,45.5
2017-01-26T09:20:43.350Z,45.5
2017-01-26T09:21:47.605Z,45.97
2017-01-26T09:22:51.852Z,46.16
2017-01-26T09:23:58.083Z,45.52
2017-01-26T09:25:01.361Z,44.67
2017-01-26T09:26:06.559Z,44.83
2017-01-26T09:27:10.878Z,44.85
2017-01-26T09:28:16.074Z,44.76
2017-01-26T09:29:20.336Z,45.9
2017-01-26T09:30:25.544Z,45.8
2017-01-26T09:31:30.727Z,44.47
2017-01-26T09:32:36.904Z,43.16
2017-01-26T09:33:42.114Z,42.12
2017-01-26T09:34:48.286Z,41.46
2017-01-26T09:35:54.492Z,41.36
2017-01-26T09:36:59.671Z,41.64
2017-01-26T09:38:05.965Z,41.83
2017-01-26T09:39:10.314Z,41.91
2017-01-26T09:40:15.418Z,42.29
2017-01-26T09:41:21.587Z,43.21
2017-01-26T09:42:26.788Z,44.54
2017-01-26T09:43:32.963Z,44.64
2017-01-26T09:44:38.172Z,45.12
2017-01-26T09:45:42.414Z,45.59
2017-01-26T09:46:48.614Z,45.97
2017-01-26T09:47:53.791Z,45.68
2017-01-26T09:48:58.995Z,44.64
2017-01-26T09:50:03.334Z,44.67
2017-01-26T09:51:09.520Z,44.19
2017-01-26T09:52:14.702Z,43.9
2017-01-26T09:53:20.916Z,43.43
2017-01-26T09:54:27.085Z,43.24
2017-01-26T09:55:32.323Z,43.05
2017-01-26T09:56:36.532Z,42.67
2017-01-26T09:57:42.825Z,43.14
2017-01-26T09:58:48.027Z,42.86
2017-01-26T09:59:53.265Z,42.47
2017-01-26T10:00:59.591Z,42.76
2017-01-26T10:02:04.722Z,42.79
2017-01-26T10:03:10.908Z,42
2017-01-26T10:04:16.116Z,42.19
2017-01-26T10:05:21.425Z,41.43
2017-01-26T10:06:26.627Z,41.98
2017-01-26T10:07:31.837Z,43.86
2017-01-26T10:08:37.038Z,44.9
2017-01-26T10:09:43.220Z,45.66
2017-01-26T10:10:47.463Z,45.5
2017-01-26T10:11:51.674Z,44.45
2017-01-26T10:12:56.962Z,43.79
2017-01-26T10:14:03.141Z,43.14
2017-01-26T10:15:07.352Z,43.05
2017-01-26T10:16:11.605Z,42.27
2017-01-26T10:17:17.779Z,43.31
2017-01-26T10:18:22.023Z,43.98
2017-01-26T10:19:28.196Z,44.45
2017-01-26T10:20:34.362Z,43.88
2017-01-26T10:21:39.649Z,43.79
2017-01-26T10:22:44.796Z,42.93
2017-01-26T10:23:50.001Z,42.76
2017-01-26T10:24:56.181Z,42.47
2017-01-26T10:26:01.395Z,42.1
2017-01-26T10:27:07.601Z,41.74
2017-01-26T10:28:13.759Z,41.55
2017-01-26T10:29:19.956Z,40.59
2017-01-26T10:30:26.127Z,39.84
2017-01-26T10:31:31.346Z,39.55
2017-01-26T10:32:37.514Z,39.09
2017-01-26T10:33:43.693Z,39.48
2017-01-26T10:34:48.898Z,38.62
2017-01-26T10:35:55.071Z,38.62
2017-01-26T10:37:00.255Z,38.07
2017-01-26T10:38:05.444Z,37.49
2017-01-26T10:39:10.624Z,37.3
2017-01-26T10:40:15.828Z,37.57
2017-01-26T10:41:22.078Z,37.95
2017-01-26T10:42:28.296Z,38.79
2017-01-26T10:43:33.460Z,38.98
2017-01-26T10:44:38.629Z,38.9
2017-01-26T10:45:43.861Z,38.51
2017-01-26T10:46:50.025Z,39.62
2017-01-26T10:47:56.277Z,40.67
2017-01-26T10:49:01.542Z,41.34
2017-01-26T10:50:04.761Z,41.98
2017-01-26T10:51:10.932Z,42.57
2017-01-26T10:52:16.140Z,42.57
2017-01-26T10:53:22.322Z,42.74
2017-01-26T10:54:27.504Z,43.76
2017-01-26T10:55:31.829Z,44.81
2017-01-26T10:56:36.031Z,45.66
2017-01-26T10:57:41.173Z,45.92
2017-01-26T10:58:47.343Z,47.16
2017-01-26T10:59:51.666Z,48.3
2017-01-26T11:00:56.820Z,48.58
2017-01-26T11:02:02.073Z,48.68
2017-01-26T11:03:08.211Z,49.43
2017-01-26T11:04:14.381Z,48.68
2017-01-26T11:05:20.561Z,48.96
2017-01-26T11:06:24.801Z,48.65
2017-01-26T11:07:30.987Z,49.69
2017-01-26T11:08:36.241Z,50.64
2017-01-26T11:09:40.447Z,51.12
2017-01-26T11:10:46.629Z,51.12
2017-01-26T11:11:51.825Z,51.12
2017-01-26T11:12:58.053Z,51.57
2017-01-26T11:14:02.363Z,52.23
2017-01-26T11:15:08.539Z,52.8
2017-01-26T11:16:12.741Z,53.08
2017-01-26T11:17:18.907Z,53.53
2017-01-26T11:18:24.119Z,54
2017-01-26T11:19:30.299Z,54.86
2017-01-26T11:20:36.460Z,54.95
2017-01-26T11:21:42.634Z,55.33
2017-01-26T11:22:48.815Z,56.27
2017-01-26T11:23:54.989Z,56.75
2017-01-26T11:25:01.178Z,57.1
2017-01-26T11:26:07.349Z,57.29
2017-01-26T11:27:12.532Z,57.57
2017-01-26T11:28:17.734Z,58.71
2017-01-26T11:29:23.904Z,58.71
2017-01-26T11:30:30.061Z,59.06
2017-01-26T11:31:35.317Z,59.91
2017-01-26T11:32:41.485Z,60
2017-01-26T11:33:47.652Z,60.77
2017-01-26T11:34:52.824Z,61.24
2017-01-26T11:35:58.995Z,61.61
2017-01-26T11:37:05.156Z,60.96
2017-01-26T11:38:11.328Z,61.52
2017-01-26T11:39:17.599Z,61.71
2017-01-26T11:40:23.734Z,61.43
2017-01-26T11:41:28.942Z,61.33
2017-01-26T11:42:35.153Z,61.99
2017-01-26T11:43:40.321Z,62.09
2017-01-26T11:44:44.578Z,61.99
2017-01-26T11:45:50.746Z,61.99
2017-01-26T11:46:56.999Z,61.9
2017-01-26T11:48:03.179Z,61.9
2017-01-26T11:49:07.416Z,62.28
2017-01-26T11:50:13.611Z,62.28
2017-01-26T11:51:17.817Z,62.37
2017-01-26T11:52:23.994Z,62.09
2017-01-26T11:53:30.157Z,62.37
2017-01-26T11:54:36.401Z,61.9
2017-01-26T11:55:41.555Z,61.71
2017-01-26T11:56:47.721Z,61.43
2017-01-26T11:57:52.920Z,61.15
2017-01-26T11:58:59.078Z,61.15
2017-01-26T12:00:04.276Z,61.43
2017-01-26T12:01:08.503Z,61.8
2017-01-26T12:02:13.682Z,61.71
2017-01-26T12:03:19.828Z,61.99
2017-01-26T12:04:25.999Z,62.09
2017-01-26T12:05:31.194Z,61.99
2017-01-26T12:06:35.433Z,62.09
2017-01-26T12:07:41.606Z,62.66
2017-01-26T12:08:47.769Z,62.66
2017-01-26T12:09:54.100Z,62.47
2017-01-26T12:10:59.080Z,62.09
2017-01-26T12:12:03.313Z,62.37
2017-01-26T12:13:09.480Z,62.94
2017-01-26T12:14:15.645Z,62.94
2017-01-26T12:15:20.837Z,62.66
2017-01-26T12:16:26.041Z,62.56
2017-01-26T12:17:32.198Z,62.66
2017-01-26T12:18:38.373Z,62.85
2017-01-26T12:19:43.595Z,63.23
2017-01-26T12:20:49.760Z,62.94
2017-01-26T12:21:55.924Z,62.94
2017-01-26T12:23:02.090Z,63.04
2017-01-26T12:24:07.278Z,62.47
2017-01-26T12:25:13.450Z,62.85
2017-01-26T12:26:19.734Z,62.47
2017-01-26T12:27:24.908Z,62.85
2017-01-26T12:28:31.066Z,62.85
2017-01-26T12:29:36.355Z,62.94
2017-01-26T12:30:42.520Z,62.94
2017-01-26T12:31:47.723Z,62.94
2017-01-26T12:32:52.953Z,63.23
2017-01-26T12:33:59.143Z,63.04
2017-01-26T12:35:05.290Z,63.51
2017-01-26T12:36:08.620Z,62.94
2017-01-26T12:37:12.825Z,62.85
2017-01-26T12:38:19.090Z,63.23
2017-01-26T12:39:24.286Z,63.13
2017-01-26T12:40:29.510Z,63.04
2017-01-26T12:41:35.682Z,63.04
2017-01-26T12:42:41.841Z,62.94
2017-01-26T12:43:47.102Z,63.13
2017-01-26T12:44:52.305Z,63.13
2017-01-26T12:45:56.544Z,62.94
2017-01-26T12:47:01.741Z,62.75
2017-01-26T12:48:08.042Z,63.13
2017-01-26T12:49:14.171Z,63.04
2017-01-26T12:50:20.341Z,62.85
2017-01-26T12:51:25.545Z,62.85
2017-01-26T12:52:30.745Z,62.18
2017-01-26T12:53:36.903Z,63.23
2017-01-26T12:54:43.076Z,62.85
2017-01-26T12:55:48.272Z,62.94
2017-01-26T12:56:52.501Z,63.13
2017-01-26T12:57:57.701Z,62.94
2017-01-26T12:59:02.902Z,63.04
2017-01-26T13:00:08.137Z,63.13
2017-01-26T13:01:11.419Z,62.85
2017-01-26T13:02:17.586Z,63.13
2017-01-26T13:03:22.791Z,62.94
2017-01-26T13:04:27.017Z,63.13
2017-01-26T13:05:33.236Z,62.94
2017-01-26T13:06:37.444Z,63.04
2017-01-26T13:07:43.631Z,62.47
2017-01-26T13:08:48.849Z,63.04
2017-01-26T13:09:55.015Z,62.85
2017-01-26T13:11:01.189Z,62.37
2017-01-26T13:12:06.393Z,62.66
2017-01-26T13:13:12.567Z,63.04
2017-01-26T13:15:22.956Z,62.47
2017-01-26T13:16:29.125Z,62.18
2017-01-26T13:17:34.317Z,62.37
2017-01-26T13:18:39.529Z,62.18
2017-01-26T13:19:44.701Z,61.9
2017-01-26T13:20:48.934Z,61.99
2017-01-26T13:21:53.176Z,62.28
2017-01-26T13:22:58.374Z,62.66
2017-01-26T13:24:03.545Z,62.28
2017-01-26T13:25:08.804Z,63.04
2017-01-26T13:26:13.986Z,63.04
2017-01-26T13:27:20.296Z,62.66
2017-01-26T13:28:25.462Z,62.94
2017-01-26T13:29:31.630Z,62.66
2017-01-26T13:30:35.833Z,62.85
2017-01-26T13:31:41.049Z,62.85
2017-01-26T13:32:46.240Z,62.37
2017-01-26T13:33:52.529Z,62.47
2017-01-26T13:34:56.758Z,62.09
2017-01-26T13:36:01.959Z,62.28
2017-01-26T13:37:07.182Z,62.28
2017-01-26T13:38:13.351Z,62.47
2017-01-26T13:39:19.615Z,62.56
2017-01-26T13:40:22.795Z,62.56
2017-01-26T13:41:28.054Z,63.04
2017-01-26T13:42:32.283Z,62.85
2017-01-26T13:43:36.495Z,62.94
2017-01-26T13:44:41.689Z,63.04
2017-01-26T13:45:45.918Z,63.04
2017-01-26T13:46:50.141Z,63.04
2017-01-26T13:47:56.399Z,63.04
2017-01-26T13:49:02.563Z,63.04
2017-01-26T13:50:06.799Z,62.37
2017-01-26T13:51:13.142Z,62.75
2017-01-26T13:52:19.342Z,62.94
2017-01-26T13:53:24.549Z,62.94
2017-01-26T13:54:30.719Z,61.9
2017-01-26T13:55:34.941Z,62.56
2017-01-26T13:56:40.162Z,62.37
2017-01-26T13:57:46.326Z,62.66
2017-01-26T13:58:52.482Z,62.66
2017-01-26T13:59:58.651Z,62.56
2017-01-26T14:01:03.909Z,62.85
2017-01-26T14:02:09.098Z,62.85
2017-01-26T14:03:15.274Z,62.66
2017-01-26T14:04:20.476Z,62.75
2017-01-26T14:05:26.649Z,62.47
2017-01-26T14:06:32.814Z,62.66
2017-01-26T14:07:38.037Z,63.13
2017-01-26T14:08:44.271Z,62.28